Time;durP1;ratioP1;P1;durP2;ratioP2;P2;SDS_P1;SDS_P2;PMS_P1;PMS_P2;Temp;Humidity;BMP_temperature;BMP_pressure;BME280_temperature;BME280_humidity;BME280_pressure;Samples;Min_cycle;Max_cycle;Signal;HPM_P1;HPM_P2
2023/05/23 00:01:26;;;;;;;9.00;8.13;;;;;;;;;;5035757;28;20203;-73
2023/05/23 00:04:30;;;;;;;12.87;9.10;;;;;;;;;;5035898;28;20176;-73
2023/05/23 00:07:34;;;;;;;11.53;8.60;;;;;;;;;;5035668;28;20561;-73
2023/05/23 00:10:38;;;;;;;10.77;8.37;;;;;;;;;;5023703;28;20177;-73
2023/05/23 00:13:43;;;;;;;10.93;8.67;;;;;;;;;;5023340;28;20223;-73
2023/05/23 00:16:48;;;;;;;13.17;8.63;;;;;;;;;;5035487;28;20188;-73
2023/05/23 00:19:52;;;;;;;9.53;8.53;;;;;;;;;;5011951;28;20198;-73
2023/05/23 00:22:57;;;;;;;11.80;9.37;;;;;;;;;;5035403;28;20556;-73
2023/05/23 00:26:01;;;;;;;11.13;8.43;;;;;;;;;;5035577;28;20177;-73
2023/05/23 00:29:05;;;;;;;15.57;9.07;;;;;;;;;;5023222;28;20183;-73
2023/05/23 00:32:09;;;;;;;10.23;9.00;;;;;;;;;;5011949;28;20713;-73
2023/05/23 00:35:13;;;;;;;11.87;9.87;;;;;;;;;;5011956;28;20180;-73
2023/05/23 00:38:18;;;;;;;11.40;9.50;;;;;;;;;;5011602;28;20208;-73
2023/05/23 00:41:24;;;;;;;14.00;9.83;;;;;;;;;;5022765;28;20691;-73
2023/05/23 00:44:29;;;;;;;10.63;9.43;;;;;;;;;;5022777;28;20544;-73
2023/05/23 00:47:33;;;;;;;13.73;10.10;;;;;;;;;;5023080;28;20624;-73
2023/05/23 00:50:37;;;;;;;11.07;9.77;;;;;;;;;;5034057;28;20211;-73
2023/05/23 00:53:42;;;;;;;12.77;10.30;;;;;;;;;;5034667;28;20227;-73
2023/05/23 00:56:47;;;;;;;11.80;9.70;;;;;;;;;;5011591;28;20199;-73
2023/05/23 00:59:52;;;;;;;11.93;10.20;;;;;;;;;;5034621;28;20181;-73
2023/05/23 01:02:56;;;;;;;10.67;9.57;;;;;;;;;;5034821;28;20224;-73
2023/05/23 01:06:01;;;;;;;12.40;10.23;;;;;;;;;;5022696;28;20180;-73
2023/05/23 01:09:05;;;;;;;13.10;10.63;;;;;;;;;;5034644;28;20579;-73
2023/05/23 01:12:12;;;;;;;13.93;9.70;;;;;;;;;;5034303;28;20219;-73
2023/05/23 01:15:20;;;;;;;13.37;11.07;;;;;;;;;;5022209;28;20194;-73
2023/05/23 01:18:45;;;;;;;12.97;9.63;;;;;;;;;;5011045;28;20572;-73
2023/05/23 01:21:54;;;;;;;13.53;10.10;;;;;;;;;;5022295;28;20308;-73
2023/05/23 01:25:37;;;;;;;11.73;10.43;;;;;;;;;;5022489;28;20192;-73
2023/05/23 01:28:48;;;;;;;11.57;10.37;;;;;;;;;;5020859;28;20200;-73
2023/05/23 01:31:54;;;;;;;16.20;10.50;;;;;;;;;;5033190;28;20228;-74
2023/05/23 01:34:59;;;;;;;14.83;11.30;;;;;;;;;;5033303;28;20679;-74
2023/05/23 01:38:03;;;;;;;12.53;10.43;;;;;;;;;;5021494;28;20231;-73
2023/05/23 01:41:07;;;;;;;14.37;10.37;;;;;;;;;;5032759;28;20216;-73
2023/05/23 01:44:11;;;;;;;12.33;10.30;;;;;;;;;;5033945;28;20191;-73
2023/05/23 01:47:16;;;;;;;14.50;11.47;;;;;;;;;;5021780;28;20659;-73
2023/05/23 01:50:21;;;;;;;14.13;11.57;;;;;;;;;;5021651;28;20652;-73
2023/05/23 01:53:27;;;;;;;11.87;10.57;;;;;;;;;;5010406;28;20219;-73
2023/05/23 01:56:32;;;;;;;11.90;10.70;;;;;;;;;;5033808;28;20650;-73
2023/05/23 01:59:38;;;;;;;12.87;11.13;;;;;;;;;;5021489;28;20694;-73
2023/05/23 02:02:42;;;;;;;12.57;10.43;;;;;;;;;;5021316;28;20224;-73
2023/05/23 02:05:46;;;;;;;11.33;10.13;;;;;;;;;;5010276;28;20647;-72
2023/05/23 02:08:51;;;;;;;14.93;11.40;;;;;;;;;;5033343;28;20176;-73
2023/05/23 02:11:55;;;;;;;11.90;10.37;;;;;;;;;;5009917;28;20219;-74
2023/05/23 02:14:59;;;;;;;14.63;11.50;;;;;;;;;;5010023;28;20184;-74
2023/05/23 02:18:05;;;;;;;12.90;10.93;;;;;;;;;;5021147;28;20180;-73
2023/05/23 02:21:09;;;;;;;13.47;11.30;;;;;;;;;;5021196;28;20188;-74
2023/05/23 02:24:14;;;;;;;11.50;10.30;;;;;;;;;;5032232;28;20191;-74
2023/05/23 02:27:19;;;;;;;11.80;10.50;;;;;;;;;;5021398;28;20188;-76
2023/05/23 02:30:23;;;;;;;14.77;10.90;;;;;;;;;;5033113;28;20184;-74
2023/05/23 02:33:27;;;;;;;13.20;9.90;;;;;;;;;;5032144;28;20219;-73
2023/05/23 02:36:32;;;;;;;11.63;10.43;;;;;;;;;;5021133;28;20203;-73
2023/05/23 02:39:36;;;;;;;13.20;10.83;;;;;;;;;;5020840;28;20211;-74
2023/05/23 02:42:41;;;;;;;12.80;11.43;;;;;;;;;;5032181;28;20227;-74
2023/05/23 02:45:45;;;;;;;13.13;11.33;;;;;;;;;;5032206;28;20191;-73
2023/05/23 02:48:48;;;;;;;13.33;11.87;;;;;;;;;;5021066;28;20183;-73
2023/05/23 02:51:53;;;;;;;13.53;11.73;;;;;;;;;;5020701;28;20219;-73
2023/05/23 02:54:57;;;;;;;14.23;12.00;;;;;;;;;;5024954;28;20188;-73
2023/05/23 02:58:04;;;;;;;14.73;12.20;;;;;;;;;;5024991;28;20183;-74
2023/05/23 03:01:08;;;;;;;15.23;12.27;;;;;;;;;;5024706;28;20180;-74
2023/05/23 03:04:12;;;;;;;16.80;13.27;;;;;;;;;;5024958;28;20191;-74
2023/05/23 03:07:16;;;;;;;15.47;13.03;;;;;;;;;;5024900;28;20212;-74
2023/05/23 03:10:20;;;;;;;13.83;12.43;;;;;;;;;;5024840;28;20192;-74
2023/05/23 03:13:25;;;;;;;19.37;13.30;;;;;;;;;;5035815;28;20239;-74
2023/05/23 03:16:29;;;;;;;18.77;13.00;;;;;;;;;;5050521;23;20239;-72
2023/05/23 03:19:33;;;;;;;14.50;12.83;;;;;;;;;;5013419;28;20208;-72
2023/05/23 03:22:37;;;;;;;15.90;13.30;;;;;;;;;;5024901;28;20227;-71
2023/05/23 03:25:42;;;;;;;16.27;13.60;;;;;;;;;;5024766;28;20184;-71
2023/05/23 03:28:47;;;;;;;19.10;14.53;;;;;;;;;;5013473;28;20538;-71
2023/05/23 03:31:51;;;;;;;18.67;14.07;;;;;;;;;;5024705;28;20228;-72
2023/05/23 03:34:55;;;;;;;16.40;14.10;;;;;;;;;;5013203;28;20204;-72
2023/05/23 03:37:59;;;;;;;18.03;14.40;;;;;;;;;;5024262;28;20188;-71
2023/05/23 03:41:04;;;;;;;15.43;13.83;;;;;;;;;;5036339;28;20183;-72
2023/05/23 03:44:08;;;;;;;14.87;13.27;;;;;;;;;;5024257;28;20184;-71
2023/05/23 03:47:12;;;;;;;19.20;14.53;;;;;;;;;;5024128;28;20192;-72
2023/05/23 03:50:20;;;;;;;18.80;13.53;;;;;;;;;;5023943;28;20192;-72
2023/05/23 03:53:24;;;;;;;21.73;13.57;;;;;;;;;;5023951;28;20219;-72
2023/05/23 03:56:29;;;;;;;18.57;14.33;;;;;;;;;;5024028;28;20204;-72
2023/05/23 03:59:33;;;;;;;17.27;13.87;;;;;;;;;;5012671;28;20208;-71
2023/05/23 04:02:39;;;;;;;18.90;13.90;;;;;;;;;;5023678;28;20653;-72
2023/05/23 04:05:43;;;;;;;19.17;13.67;;;;;;;;;;5012013;28;20184;-71
2023/05/23 04:08:48;;;;;;;18.00;15.03;;;;;;;;;;5023679;28;20658;-72
2023/05/23 04:11:52;;;;;;;17.83;13.20;;;;;;;;;;5023855;28;20215;-72
2023/05/23 04:14:57;;;;;;;17.37;14.93;;;;;;;;;;5023648;28;20216;-72
2023/05/23 04:18:02;;;;;;;19.80;15.57;;;;;;;;;;5012598;28;20188;-71
2023/05/23 04:21:06;;;;;;;17.17;14.37;;;;;;;;;;5023826;28;20658;-71
2023/05/23 04:24:15;;;;;;;17.07;14.97;;;;;;;;;;5023745;28;20650;-71
2023/05/23 04:27:21;;;;;;;16.33;14.00;;;;;;;;;;5023630;28;20239;-71
2023/05/23 04:30:25;;;;;;;19.00;14.40;;;;;;;;;;5023460;28;20191;-71
2023/05/23 04:33:30;;;;;;;20.43;15.77;;;;;;;;;;5023157;28;20227;-71
2023/05/23 04:36:36;;;;;;;22.40;15.23;;;;;;;;;;5012048;28;20188;-72
2023/05/23 04:39:41;;;;;;;20.57;14.60;;;;;;;;;;5023124;28;20223;-71
2023/05/23 04:42:59;;;;;;;18.23;15.10;;;;;;;;;;5022893;28;20219;-71
2023/05/23 04:46:10;;;;;;;21.40;14.77;;;;;;;;;;5022930;28;20184;-71
2023/05/23 04:49:20;;;;;;;19.07;14.90;;;;;;;;;;5022889;28;20199;-72
2023/05/23 04:52:26;;;;;;;19.07;16.03;;;;;;;;;;5023154;28;20709;-71
2023/05/23 04:55:31;;;;;;;23.77;15.77;;;;;;;;;;5022759;28;20195;-71
2023/05/23 04:58:35;;;;;;;18.83;16.50;;;;;;;;;;5011484;28;20191;-72
2023/05/23 05:01:42;;;;;;;18.57;15.70;;;;;;;;;;5011416;28;20195;-71
2023/05/23 05:04:47;;;;;;;17.23;14.93;;;;;;;;;;5035053;28;20203;-71
2023/05/23 05:07:52;;;;;;;49.50;16.30;;;;;;;;;;5022628;28;20204;-72
2023/05/23 05:10:57;;;;;;;20.37;15.70;;;;;;;;;;5023067;28;20192;-71
2023/05/23 05:14:02;;;;;;;20.07;16.27;;;;;;;;;;5035202;28;20542;-72
2023/05/23 05:17:06;;;;;;;18.83;15.67;;;;;;;;;;5022897;28;20191;-71
2023/05/23 05:20:20;;;;;;;20.83;16.93;;;;;;;;;;5022412;28;20227;-71
2023/05/23 05:23:27;;;;;;;19.37;15.93;;;;;;;;;;5034039;28;20713;-71
2023/05/23 05:26:32;;;;;;;24.73;16.00;;;;;;;;;;5033885;28;20183;-71
2023/05/23 05:29:37;;;;;;;21.77;16.20;;;;;;;;;;5022355;28;20666;-71
2023/05/23 05:32:44;;;;;;;24.53;16.13;;;;;;;;;;5021999;28;20219;-71
2023/05/23 05:35:52;;;;;;;19.80;15.67;;;;;;;;;;5022018;28;20191;-71
2023/05/23 05:38:56;;;;;;;19.10;15.43;;;;;;;;;;5022142;28;20184;-71
2023/05/23 05:42:02;;;;;;;20.63;15.87;;;;;;;;;;5021986;28;20215;-72
2023/05/23 05:45:07;;;;;;;59.40;17.43;;;;;;;;;;5010328;28;20223;-71
2023/05/23 05:48:11;;;;;;;19.30;16.20;;;;;;;;;;5033062;28;20212;-71
2023/05/23 05:51:16;;;;;;;19.67;15.90;;;;;;;;;;5010395;28;20183;-71
2023/05/23 05:54:20;;;;;;;19.03;15.93;;;;;;;;;;5021737;28;20655;-71
2023/05/23 05:57:25;;;;;;;28.57;15.97;;;;;;;;;;5021829;28;20212;-72
2023/05/23 06:00:29;;;;;;;19.17;15.97;;;;;;;;;;5010269;28;20211;-72
2023/05/23 06:03:34;;;;;;;20.43;16.97;;;;;;;;;;4999041;28;20579;-72
2023/05/23 06:06:38;;;;;;;19.23;15.47;;;;;;;;;;5010428;28;20192;-72
2023/05/23 06:09:42;;;;;;;19.17;15.87;;;;;;;;;;5021636;28;20184;-72
2023/05/23 06:12:46;;;;;;;20.07;16.57;;;;;;;;;;4999348;28;20231;-72
2023/05/23 06:15:50;;;;;;;24.30;16.70;;;;;;;;;;5009250;28;20215;-72
2023/05/23 06:18:54;;;;;;;20.43;15.07;;;;;;;;;;5010035;28;20200;-72
2023/05/23 06:22:00;;;;;;;19.93;15.83;;;;;;;;;;5020905;28;20223;-71
2023/05/23 06:25:05;;;;;;;16.90;15.03;;;;;;;;;;5021074;28;20191;-72
2023/05/23 06:28:09;;;;;;;19.10;15.10;;;;;;;;;;5009515;28;20199;-72
2023/05/23 06:31:13;;;;;;;17.93;15.10;;;;;;;;;;5020563;28;20207;-72
2023/05/23 06:34:18;;;;;;;20.83;15.00;;;;;;;;;;5020963;28;20208;-72
2023/05/23 06:37:24;;;;;;;17.97;14.73;;;;;;;;;;5020878;28;20207;-71
2023/05/23 06:40:28;;;;;;;20.17;15.87;;;;;;;;;;5021055;28;20220;-72
2023/05/23 06:43:32;;;;;;;20.07;15.77;;;;;;;;;;5009822;28;20584;-72
2023/05/23 06:46:59;;;;;;;18.90;14.90;;;;;;;;;;5001603;28;20192;-71
2023/05/23 06:50:04;;;;;;;19.63;15.23;;;;;;;;;;5021163;28;20184;-72
2023/05/23 06:53:10;;;;;;;19.20;15.47;;;;;;;;;;5020838;28;20219;-72
2023/05/23 06:56:14;;;;;;;35.13;15.90;;;;;;;;;;5020721;28;20207;-72
2023/05/23 06:59:29;;;;;;;19.17;14.87;;;;;;;;;;5020762;28;20543;-72
2023/05/23 07:02:33;;;;;;;22.00;16.17;;;;;;;;;;5009338;28;20227;-72
2023/05/23 07:05:41;;;;;;;16.93;14.57;;;;;;;;;;5021059;28;20192;-71
2023/05/23 07:08:46;;;;;;;19.33;15.10;;;;;;;;;;5009671;28;20184;-72
2023/05/23 07:11:50;;;;;;;19.77;15.00;;;;;;;;;;5009557;28;20211;-72
2023/05/23 07:14:54;;;;;;;15.20;13.23;;;;;;;;;;5020494;28;20207;-72
2023/05/23 07:17:58;;;;;;;16.47;14.10;;;;;;;;;;5020954;28;20188;-72
2023/05/23 07:21:04;;;;;;;23.53;14.30;;;;;;;;;;5020927;28;20212;-72
2023/05/23 07:24:09;;;;;;;43.93;16.03;;;;;;;;;;5020555;28;20196;-72
2023/05/23 07:27:15;;;;;;;18.60;13.97;;;;;;;;;;5020540;28;20662;-72
2023/05/23 07:30:20;;;;;;;19.10;14.63;;;;;;;;;;5032653;28;20184;-72
2023/05/23 07:33:25;;;;;;;17.57;14.37;;;;;;;;;;5020668;28;20228;-72
2023/05/23 07:36:34;;;;;;;16.93;14.87;;;;;;;;;;5020530;28;20662;-72
2023/05/23 07:39:38;;;;;;;18.13;15.00;;;;;;;;;;5032871;28;20192;-72
2023/05/23 07:42:42;;;;;;;18.07;14.17;;;;;;;;;;5024105;28;20224;-72
2023/05/23 07:45:47;;;;;;;21.17;14.60;;;;;;;;;;5024044;28;20551;-72
2023/05/23 07:48:51;;;;;;;16.83;14.63;;;;;;;;;;5024216;28;20196;-72
2023/05/23 07:51:55;;;;;;;16.53;13.67;;;;;;;;;;5001555;28;20223;-72
2023/05/23 07:54:59;;;;;;;20.57;16.00;;;;;;;;;;5023850;28;20553;-72
2023/05/23 07:58:06;;;;;;;19.33;14.37;;;;;;;;;;5012830;28;20188;-72
2023/05/23 08:01:10;;;;;;;18.83;15.37;;;;;;;;;;5023708;28;20220;-72
2023/05/23 08:04:35;;;;;;;15.23;13.17;;;;;;;;;;5012682;28;20189;-72
2023/05/23 08:07:41;;;;;;;19.47;13.70;;;;;;;;;;5023780;28;20207;-72
2023/05/23 08:11:04;;;;;;;15.83;12.53;;;;;;;;;;5026755;28;20200;-72
2023/05/23 08:14:21;;;;;;;14.40;11.87;;;;;;;;;;5024441;28;20192;-72
2023/05/23 08:17:42;;;;;;;15.07;12.17;;;;;;;;;;5023658;28;20655;-72
2023/05/23 08:20:46;;;;;;;15.07;11.47;;;;;;;;;;5012311;28;20216;-72
2023/05/23 08:23:50;;;;;;;17.10;12.13;;;;;;;;;;5023258;28;20246;-72
2023/05/23 08:26:55;;;;;;;35.13;11.93;;;;;;;;;;5023533;28;20193;-72
2023/05/23 08:29:59;;;;;;;14.43;11.70;;;;;;;;;;5022959;28;20190;-72
2023/05/23 08:33:03;;;;;;;14.07;11.47;;;;;;;;;;5022954;28;20231;-72
2023/05/23 08:36:09;;;;;;;13.13;11.80;;;;;;;;;;5023124;28;20194;-72
2023/05/23 08:39:13;;;;;;;13.63;10.97;;;;;;;;;;5011864;28;20550;-72
2023/05/23 08:42:24;;;;;;;47.03;13.00;;;;;;;;;;5023092;28;20222;-72
2023/05/23 08:45:29;;;;;;;22.30;11.67;;;;;;;;;;5022638;28;20190;-72
2023/05/23 08:48:37;;;;;;;16.70;11.23;;;;;;;;;;5023080;28;20191;-72
2023/05/23 08:51:42;;;;;;;12.63;10.27;;;;;;;;;;5011390;28;20185;-72
2023/05/23 08:54:51;;;;;;;13.57;9.83;;;;;;;;;;5022718;28;20186;-72
2023/05/23 08:58:00;;;;;;;12.87;10.60;;;;;;;;;;5022523;28;20191;-72
2023/05/23 09:01:23;;;;;;;15.53;11.77;;;;;;;;;;5022811;28;20220;-72
2023/05/23 09:04:31;;;;;;;11.90;10.67;;;;;;;;;;5034180;28;20192;-72
2023/05/23 09:07:39;;;;;;;59.97;13.37;;;;;;;;;;5022704;28;20677;-72
2023/05/23 09:10:43;;;;;;;12.43;11.07;;;;;;;;;;5011012;28;20202;-72
2023/05/23 09:13:48;;;;;;;21.83;11.53;;;;;;;;;;5022143;28;20219;-72
2023/05/23 09:16:59;;;;;;;16.20;11.30;;;;;;;;;;5036954;23;20271;-73
2023/05/23 09:20:11;;;;;;;16.27;11.40;;;;;;;;;;5022432;28;20190;-73
2023/05/23 09:23:21;;;;;;;12.07;10.63;;;;;;;;;;5022256;28;20232;-73
2023/05/23 09:26:26;;;;;;;20.27;10.93;;;;;;;;;;5034283;28;20185;-73
2023/05/23 09:29:36;;;;;;;12.27;9.70;;;;;;;;;;4999986;28;20188;-73
2023/05/23 09:32:40;;;;;;;12.25;10.05;;;;;;;;;;5034241;28;20215;-73
2023/05/23 09:35:45;;;;;;;9.90;8.85;;;;;;;;;;4999691;28;20547;-73
2023/05/23 09:38:51;;;;;;;11.30;9.25;;;;;;;;;;5010764;28;20179;-73
2023/05/23 09:41:58;;;;;;;12.07;9.60;;;;;;;;;;5021876;28;20733;-73
2023/05/23 09:45:02;;;;;;;15.43;10.13;;;;;;;;;;5021911;28;20206;-73
2023/05/23 09:48:12;;;;;;;73.90;12.80;;;;;;;;;;5033047;28;20183;-72
2023/05/23 09:51:21;;;;;;;15.93;9.10;;;;;;;;;;5021932;28;20638;-72
2023/05/23 09:54:26;;;;;;;30.33;11.93;;;;;;;;;;5021501;28;20525;-72
2023/05/23 09:57:33;;;;;;;16.53;10.40;;;;;;;;;;5034239;28;20210;-72
2023/05/23 10:00:38;;;;;;;13.40;10.30;;;;;;;;;;5021389;28;20220;-72
2023/05/23 10:03:53;;;;;;;13.93;11.00;;;;;;;;;;5020705;28;20222;-72
2023/05/23 10:07:09;;;;;;;12.03;10.10;;;;;;;;;;5032960;28;20193;-73
2023/05/23 10:10:14;;;;;;;12.97;10.33;;;;;;;;;;5033793;28;20188;-73
2023/05/23 10:13:18;;;;;;;77.80;12.60;;;;;;;;;;5033393;28;20230;-73
2023/05/23 10:16:35;;;;;;;18.40;10.47;;;;;;;;;;5033607;28;20210;-73
2023/05/23 10:19:46;;;;;;;11.53;10.23;;;;;;;;;;5033630;28;20649;-72
2023/05/23 10:22:50;;;;;;;26.33;10.63;;;;;;;;;;5033675;28;20218;-72
2023/05/23 10:25:54;;;;;;;15.93;10.50;;;;;;;;;;5033572;28;20656;-72
2023/05/23 10:28:59;;;;;;;11.00;9.23;;;;;;;;;;5033192;28;20195;-72
2023/05/23 10:32:04;;;;;;;9.93;8.40;;;;;;;;;;5021197;28;20220;-72
2023/05/23 10:35:13;;;;;;;9.43;7.50;;;;;;;;;;5033413;28;20182;-72
2023/05/23 10:38:40;;;;;;;10.33;8.10;;;;;;;;;;5033071;28;20222;-72
2023/05/23 10:41:49;;;;;;;8.73;7.67;;;;;;;;;;5021079;28;20702;-72
2023/05/23 10:45:13;;;;;;;10.50;8.67;;;;;;;;;;5033135;28;20180;-72
2023/05/23 10:48:22;;;;;;;20.77;8.87;;;;;;;;;;5033252;28;20195;-73
2023/05/23 10:51:37;;;;;;;10.50;8.40;;;;;;;;;;5033241;28;20191;-73
2023/05/23 10:54:51;;;;;;;9.93;8.93;;;;;;;;;;5033016;28;20205;-73
2023/05/23 10:58:18;;;;;;;11.80;9.17;;;;;;;;;;5021377;28;20176;-72
2023/05/23 11:01:24;;;;;;;10.77;8.53;;;;;;;;;;5033064;28;20214;-73
2023/05/23 11:04:29;;;;;;;13.38;8.35;;;;;;;;;;5033043;28;20239;-73
2023/05/23 11:07:34;;;;;;;11.27;9.98;;;;;;;;;;5032840;28;20556;-73
2023/05/23 11:10:52;;;;;;;11.57;9.25;;;;;;;;;;5020895;28;20215;-73
2023/05/23 11:14:01;;;;;;;10.30;8.77;;;;;;;;;;5033293;28;20202;-72
2023/05/23 11:17:18;;;;;;;8.77;7.88;;;;;;;;;;5036630;28;20705;-72
2023/05/23 11:20:27;;;;;;;31.42;9.57;;;;;;;;;;5036877;28;20182;-73
2023/05/23 11:23:41;;;;;;;12.27;8.05;;;;;;;;;;5036514;28;20211;-72
2023/05/23 11:26:59;;;;;;;10.30;8.02;;;;;;;;;;5036801;28;20199;-72
2023/05/23 11:30:15;;;;;;;9.93;8.00;;;;;;;;;;5024317;28;20175;-72
2023/05/23 11:33:19;;;;;;;27.40;9.88;;;;;;;;;;5024722;28;20218;-73
2023/05/23 11:36:24;;;;;;;9.52;8.10;;;;;;;;;;5036568;28;20192;-72
2023/05/23 11:39:28;;;;;;;11.80;7.93;;;;;;;;;;5024267;28;20180;-73
2023/05/23 11:42:32;;;;;;;13.13;8.38;;;;;;;;;;5036090;28;20227;-72
2023/05/23 11:45:38;;;;;;;12.02;8.63;;;;;;;;;;5024203;28;20185;-72
2023/05/23 11:48:46;;;;;;;15.85;8.93;;;;;;;;;;5036391;28;20192;-72
2023/05/23 11:51:51;;;;;;;11.45;8.25;;;;;;;;;;5036423;28;20220;-72
2023/05/23 11:54:55;;;;;;;11.77;8.20;;;;;;;;;;5036086;28;20189;-72
2023/05/23 11:57:59;;;;;;;9.70;8.30;;;;;;;;;;5035946;28;20194;-73
2023/05/23 12:01:10;;;;;;;11.90;8.52;;;;;;;;;;5023682;28;20176;-72
2023/05/23 12:04:14;;;;;;;14.02;8.43;;;;;;;;;;5036101;28;20193;-72
2023/05/23 12:07:19;;;;;;;10.57;8.00;;;;;;;;;;5012539;28;20651;-72
2023/05/23 12:10:26;;;;;;;32.85;8.80;;;;;;;;;;5023805;28;20189;-73
2023/05/23 12:13:31;;;;;;;71.55;11.05;;;;;;;;;;5023381;28;20216;-72
2023/05/23 12:16:35;;;;;;;11.60;7.68;;;;;;;;;;5023296;28;20689;-72
2023/05/23 12:19:44;;;;;;;11.07;7.53;;;;;;;;;;5035768;28;20559;-72
2023/05/23 12:22:48;;;;;;;18.63;7.85;;;;;;;;;;5012451;28;20241;-72
2023/05/23 12:25:54;;;;;;;14.70;7.60;;;;;;;;;;5034953;28;20182;-73
2023/05/23 12:28:59;;;;;;;11.00;8.00;;;;;;;;;;5035641;28;20549;-73
2023/05/23 12:32:05;;;;;;;10.02;7.25;;;;;;;;;;5035238;28;20222;-72
2023/05/23 12:35:12;;;;;;;15.88;7.70;;;;;;;;;;5035565;28;20184;-72
2023/05/23 12:38:16;;;;;;;15.98;8.32;;;;;;;;;;5035357;28;20538;-72
2023/05/23 12:41:20;;;;;;;16.20;7.97;;;;;;;;;;5035303;28;20291;-72
2023/05/23 12:44:29;;;;;;;9.10;7.95;;;;;;;;;;5023308;28;20191;-71
2023/05/23 12:47:38;;;;;;;11.55;8.00;;;;;;;;;;5035271;28;20181;-72
2023/05/23 12:50:42;;;;;;;11.45;8.32;;;;;;;;;;5034999;28;20188;-72
2023/05/23 12:53:47;;;;;;;10.95;8.20;;;;;;;;;;5034853;28;20229;-72
2023/05/23 12:56:50;;;;;;;14.32;8.50;;;;;;;;;;5022967;28;20186;-72
2023/05/23 12:59:55;;;;;;;14.55;7.72;;;;;;;;;;5035004;28;20179;-72
2023/05/23 13:02:59;;;;;;;13.27;8.10;;;;;;;;;;5034562;28;20736;-72
2023/05/23 13:06:03;;;;;;;10.77;7.75;;;;;;;;;;5034687;28;20182;-72
2023/05/23 13:09:08;;;;;;;13.35;7.10;;;;;;;;;;5022658;28;20542;-72
2023/05/23 13:12:12;;;;;;;8.40;7.10;;;;;;;;;;5035076;28;20226;-72
2023/05/23 13:15:16;;;;;;;14.13;7.00;;;;;;;;;;5034552;28;20528;-72
2023/05/23 13:18:20;;;;;;;17.10;7.55;;;;;;;;;;5034338;28;20207;-73
2023/05/23 13:21:25;;;;;;;12.98;6.10;;;;;;;;;;5034533;28;20642;-72
2023/05/23 13:24:29;;;;;;;10.52;6.22;;;;;;;;;;5022394;28;20190;-72
2023/05/23 13:27:33;;;;;;;7.90;5.90;;;;;;;;;;5034564;28;20186;-72
2023/05/23 13:30:37;;;;;;;9.85;6.15;;;;;;;;;;5022048;28;20169;-72
2023/05/23 13:33:43;;;;;;;7.13;5.70;;;;;;;;;;5034356;28;20556;-72
2023/05/23 13:36:47;;;;;;;32.33;6.80;;;;;;;;;;5010865;28;20187;-72
2023/05/23 13:39:51;;;;;;;8.60;5.80;;;;;;;;;;5033993;28;20544;-72
2023/05/23 13:42:56;;;;;;;14.27;5.70;;;;;;;;;;5034213;28;20234;-72
2023/05/23 13:46:01;;;;;;;8.75;5.18;;;;;;;;;;5022011;28;20219;-72
2023/05/23 13:49:05;;;;;;;6.68;5.32;;;;;;;;;;5021679;28;20200;-72
2023/05/23 13:52:11;;;;;;;6.70;5.07;;;;;;;;;;5033764;28;20211;-72
2023/05/23 13:55:17;;;;;;;16.70;5.50;;;;;;;;;;5033950;28;20186;-72
2023/05/23 13:58:21;;;;;;;5.75;4.45;;;;;;;;;;5034086;28;20180;-73
2023/05/23 14:01:25;;;;;;;10.95;4.93;;;;;;;;;;5033671;28;20204;-72
2023/05/23 14:04:31;;;;;;;7.32;4.90;;;;;;;;;;5033986;28;20205;-73
2023/05/23 14:07:35;;;;;;;7.07;4.25;;;;;;;;;;5021897;28;20175;-72
2023/05/23 14:10:40;;;;;;;5.72;4.50;;;;;;;;;;5033622;28;20526;-73
2023/05/23 14:13:44;;;;;;;7.78;4.75;;;;;;;;;;5033996;28;20211;-72
2023/05/23 14:16:50;;;;;;;5.10;4.22;;;;;;;;;;5021375;28;20198;-73
2023/05/23 14:19:54;;;;;;;8.20;4.30;;;;;;;;;;5010400;28;20177;-73
2023/05/23 14:22:58;;;;;;;4.47;4.07;;;;;;;;;;5010068;28;20596;-72
2023/05/23 14:26:03;;;;;;;4.97;4.45;;;;;;;;;;5034012;28;20181;-73
2023/05/23 14:29:08;;;;;;;5.15;4.47;;;;;;;;;;5033419;28;20179;-71
2023/05/23 14:32:12;;;;;;;4.72;4.00;;;;;;;;;;5033884;28;20220;-73
2023/05/23 14:35:16;;;;;;;7.43;4.70;;;;;;;;;;5033307;28;20184;-72
2023/05/23 14:38:20;;;;;;;5.55;3.60;;;;;;;;;;5033163;28;20526;-73
2023/05/23 14:41:26;;;;;;;5.97;3.67;;;;;;;;;;5033296;28;20639;-72
2023/05/23 14:44:30;;;;;;;4.13;3.53;;;;;;;;;;5021110;28;20190;-73
2023/05/23 14:47:36;;;;;;;8.02;4.03;;;;;;;;;;5020945;28;20525;-74
2023/05/23 14:50:41;;;;;;;5.57;4.03;;;;;;;;;;5002168;28;20192;-74
2023/05/23 14:53:45;;;;;;;7.40;3.65;;;;;;;;;;5026943;28;20215;-74
2023/05/23 14:56:50;;;;;;;28.70;4.93;;;;;;;;;;5037330;28;20200;-74
2023/05/23 14:59:54;;;;;;;8.82;3.13;;;;;;;;;;5024777;28;20207;-74
2023/05/23 15:02:58;;;;;;;4.60;2.73;;;;;;;;;;5037114;28;20567;-74
2023/05/23 15:06:03;;;;;;;3.10;2.80;;;;;;;;;;5037257;28;20189;-74
2023/05/23 15:09:09;;;;;;;6.55;3.03;;;;;;;;;;5037048;28;20179;-74
2023/05/23 15:12:16;;;;;;;3.92;2.80;;;;;;;;;;5013991;28;20216;-74
2023/05/23 15:18:46;;;;;;;9.50;3.05;;;;;;;;;;4956771;29;20203;-72
2023/05/23 15:21:50;;;;;;;5.00;3.20;;;;;;;;;;4961311;28;20218;-72
2023/05/23 15:24:58;;;;;;;3.93;2.70;;;;;;;;;;4978111;28;20181;-72
2023/05/23 15:28:03;;;;;;;5.43;2.83;;;;;;;;;;4977463;28;20200;-72
2023/05/23 15:31:07;;;;;;;4.30;2.83;;;;;;;;;;4966168;28;20188;-72
2023/05/23 15:34:11;;;;;;;4.70;2.47;;;;;;;;;;4977176;28;20183;-72
2023/05/23 15:37:16;;;;;;;5.80;3.03;;;;;;;;;;4978199;28;20185;-72
2023/05/23 15:40:20;;;;;;;4.80;2.53;;;;;;;;;;4977541;28;20183;-72
2023/05/23 15:43:25;;;;;;;8.90;2.50;;;;;;;;;;4977673;28;20702;-72
2023/05/23 15:46:29;;;;;;;4.17;2.80;;;;;;;;;;4977854;28;20188;-72
2023/05/23 15:49:33;;;;;;;4.37;3.27;;;;;;;;;;4977775;28;20187;-72
2023/05/23 15:52:37;;;;;;;6.27;2.67;;;;;;;;;;4965811;28;20546;-73
2023/05/23 15:55:41;;;;;;;7.43;2.37;;;;;;;;;;4976912;28;20202;-72
2023/05/23 15:58:45;;;;;;;5.23;2.60;;;;;;;;;;4977629;28;20185;-72
2023/05/23 16:01:50;;;;;;;4.67;2.33;;;;;;;;;;4976465;28;20211;-72
2023/05/23 16:04:54;;;;;;;6.90;2.47;;;;;;;;;;4977175;28;20183;-72
2023/05/23 16:07:58;;;;;;;2.70;2.33;;;;;;;;;;4977209;28;20187;-72
2023/05/23 16:11:02;;;;;;;2.87;2.60;;;;;;;;;;4977143;28;20187;-72
2023/05/23 16:14:06;;;;;;;3.43;2.50;;;;;;;;;;4977373;28;20175;-73
2023/05/23 16:17:10;;;;;;;6.93;3.00;;;;;;;;;;4977011;28;20211;-72
2023/05/23 16:20:14;;;;;;;4.27;2.57;;;;;;;;;;4976427;28;20199;-72
2023/05/23 16:23:17;;;;;;;3.57;2.83;;;;;;;;;;4976038;28;20697;-72
2023/05/23 16:26:22;;;;;;;3.03;2.73;;;;;;;;;;4976018;28;20527;-72
2023/05/23 16:29:26;;;;;;;5.80;2.67;;;;;;;;;;4976024;28;20202;-73
2023/05/23 16:32:30;;;;;;;5.97;2.63;;;;;;;;;;4976761;28;20210;-72
2023/05/23 16:35:34;;;;;;;4.30;2.73;;;;;;;;;;4976874;28;20187;-72
2023/05/23 16:38:38;;;;;;;5.13;2.37;;;;;;;;;;4964623;28;20203;-72
2023/05/23 16:41:42;;;;;;;3.60;2.50;;;;;;;;;;4975926;28;20187;-72
2023/05/23 16:44:47;;;;;;;5.20;2.70;;;;;;;;;;4975869;28;20179;-72
2023/05/23 16:47:51;;;;;;;4.20;2.13;;;;;;;;;;4976990;28;20190;-72
2023/05/23 16:50:56;;;;;;;2.10;1.90;;;;;;;;;;4976750;28;20183;-72
2023/05/23 16:54:00;;;;;;;3.20;2.20;;;;;;;;;;4964632;28;20171;-72
2023/05/23 16:57:05;;;;;;;2.90;2.40;;;;;;;;;;4975389;28;20183;-72
2023/05/23 17:00:10;;;;;;;4.13;2.07;;;;;;;;;;4976466;28;20191;-72
2023/05/23 17:03:14;;;;;;;3.50;2.13;;;;;;;;;;4976170;28;20218;-72
2023/05/23 17:06:18;;;;;;;5.20;2.10;;;;;;;;;;4975806;28;20179;-72
2023/05/23 17:09:22;;;;;;;3.43;2.27;;;;;;;;;;4976332;28;20183;-72
2023/05/23 17:12:26;;;;;;;4.30;2.10;;;;;;;;;;4975954;28;20226;-72
2023/05/23 17:15:31;;;;;;;2.10;1.90;;;;;;;;;;4976085;28;20187;-72
2023/05/23 17:18:35;;;;;;;2.20;2.00;;;;;;;;;;4976075;28;20629;-72
2023/05/23 17:21:39;;;;;;;3.27;2.00;;;;;;;;;;4976221;28;20654;-72
2023/05/23 17:24:43;;;;;;;3.33;2.30;;;;;;;;;;4976224;28;20673;-72
2023/05/23 17:27:47;;;;;;;2.90;2.20;;;;;;;;;;4975924;28;20199;-72
2023/05/23 17:30:52;;;;;;;4.53;2.30;;;;;;;;;;4975844;28;20198;-72
2023/05/23 17:33:56;;;;;;;29.27;3.70;;;;;;;;;;4975950;28;20179;-72
2023/05/23 17:37:01;;;;;;;3.37;2.07;;;;;;;;;;4975828;28;20581;-72
2023/05/23 17:40:06;;;;;;;2.40;2.20;;;;;;;;;;4975851;28;20198;-72
2023/05/23 17:43:11;;;;;;;2.47;2.23;;;;;;;;;;4974939;28;20713;-72
2023/05/23 17:46:15;;;;;;;3.17;2.50;;;;;;;;;;4963765;28;20175;-72
2023/05/23 17:49:19;;;;;;;2.47;2.23;;;;;;;;;;4975871;28;20183;-72
2023/05/23 17:52:23;;;;;;;2.80;2.40;;;;;;;;;;4974496;28;20566;-72
2023/05/23 17:55:27;;;;;;;6.37;2.17;;;;;;;;;;4975536;28;20179;-72
2023/05/23 17:58:31;;;;;;;5.17;2.40;;;;;;;;;;4975382;28;20186;-73
2023/05/23 18:01:36;;;;;;;2.20;2.00;;;;;;;;;;4975487;28;20182;-73
2023/05/23 18:04:40;;;;;;;6.50;1.90;;;;;;;;;;4975263;28;20218;-72
2023/05/23 18:07:45;;;;;;;2.30;2.10;;;;;;;;;;4975113;28;20183;-73
2023/05/23 18:10:50;;;;;;;2.63;2.00;;;;;;;;;;4963281;28;20622;-73
2023/05/23 18:13:54;;;;;;;4.00;2.30;;;;;;;;;;4974613;28;20199;-72
2023/05/23 18:16:58;;;;;;;2.40;2.10;;;;;;;;;;4974518;28;20202;-74